sensor_id;sensor_type;location;lat;lon;timestamp;temperature;humidity
65038;DHT22;51605;47.040;15.294;2023-07-31T00:00:24;24.00;52.90
65038;DHT22;51605;47.040;15.294;2023-07-31T00:02:51;24.00;53.00
65038;DHT22;51605;47.040;15.294;2023-07-31T00:05:17;24.00;53.10
65038;DHT22;51605;47.040;15.294;2023-07-31T00:07:43;24.00;53.00
65038;DHT22;51605;47.040;15.294;2023-07-31T00:10:09;24.00;53.00
65038;DHT22;51605;47.040;15.294;2023-07-31T00:12:34;24.00;53.00
65038;DHT22;51605;47.040;15.294;2023-07-31T00:15:01;24.00;52.90
65038;DHT22;51605;47.040;15.294;2023-07-31T00:17:27;24.00;53.00
65038;DHT22;51605;47.040;15.294;2023-07-31T00:19:53;24.00;53.00
65038;DHT22;51605;47.040;15.294;2023-07-31T00:22:19;24.00;53.00
65038;DHT22;51605;47.040;15.294;2023-07-31T00:24:44;24.00;53.10
65038;DHT22;51605;47.040;15.294;2023-07-31T00:27:10;24.00;53.10
65038;DHT22;51605;47.040;15.294;2023-07-31T00:29:35;24.00;53.10
65038;DHT22;51605;47.040;15.294;2023-07-31T00:32:01;24.00;53.00
65038;DHT22;51605;47.040;15.294;2023-07-31T00:34:27;24.00;53.00
65038;DHT22;51605;47.040;15.294;2023-07-31T00:36:52;24.00;53.00
65038;DHT22;51605;47.040;15.294;2023-07-31T00:39:18;24.00;53.00
65038;DHT22;51605;47.040;15.294;2023-07-31T00:41:44;24.00;53.10
65038;DHT22;51605;47.040;15.294;2023-07-31T00:44:09;24.00;53.10
65038;DHT22;51605;47.040;15.294;2023-07-31T00:46:35;24.00;53.10
65038;DHT22;51605;47.040;15.294;2023-07-31T00:49:00;24.00;53.00
65038;DHT22;51605;47.040;15.294;2023-07-31T00:51:26;24.00;53.00
65038;DHT22;51605;47.040;15.294;2023-07-31T00:53:53;24.00;53.10
65038;DHT22;51605;47.040;15.294;2023-07-31T00:56:19;24.00;53.10
65038;DHT22;51605;47.040;15.294;2023-07-31T00:58:45;24.00;53.10
65038;DHT22;51605;47.040;15.294;2023-07-31T01:01:11;24.00;53.10
65038;DHT22;51605;47.040;15.294;2023-07-31T01:03:36;24.00;53.10
65038;DHT22;51605;47.040;15.294;2023-07-31T01:06:13;24.00;53.10
65038;DHT22;51605;47.040;15.294;2023-07-31T01:11:27;24.00;53.00
65038;DHT22;51605;47.040;15.294;2023-07-31T01:13:55;24.00;53.10
65038;DHT22;51605;47.040;15.294;2023-07-31T01:16:20;24.00;53.10
65038;DHT22;51605;47.040;15.294;2023-07-31T01:18:46;24.00;53.10
65038;DHT22;51605;47.040;15.294;2023-07-31T01:26:38;24.00;53.10
65038;DHT22;51605;47.040;15.294;2023-07-31T01:29:12;24.00;53.10
65038;DHT22;51605;47.040;15.294;2023-07-31T01:31:42;24.00;53.10
65038;DHT22;51605;47.040;15.294;2023-07-31T01:34:10;24.00;53.10
65038;DHT22;51605;47.040;15.294;2023-07-31T01:36:36;24.00;53.10
65038;DHT22;51605;47.040;15.294;2023-07-31T01:39:02;24.00;53.10
65038;DHT22;51605;47.040;15.294;2023-07-31T01:41:29;24.00;53.10
65038;DHT22;51605;47.040;15.294;2023-07-31T01:43:55;24.00;53.10
65038;DHT22;51605;47.040;15.294;2023-07-31T01:46:20;24.00;53.10
65038;DHT22;51605;47.040;15.294;2023-07-31T01:48:46;24.00;53.10
65038;DHT22;51605;47.040;15.294;2023-07-31T01:51:11;24.00;53.10
65038;DHT22;51605;47.040;15.294;2023-07-31T01:53:37;24.00;53.10
65038;DHT22;51605;47.040;15.294;2023-07-31T01:56:03;24.00;53.00
65038;DHT22;51605;47.040;15.294;2023-07-31T01:58:29;24.00;53.10
65038;DHT22;51605;47.040;15.294;2023-07-31T02:00:54;24.00;53.00
65038;DHT22;51605;47.040;15.294;2023-07-31T02:03:20;24.00;53.00
65038;DHT22;51605;47.040;15.294;2023-07-31T02:05:47;24.00;53.00
65038;DHT22;51605;47.040;15.294;2023-07-31T02:08:13;24.00;53.10
65038;DHT22;51605;47.040;15.294;2023-07-31T02:10:39;24.00;53.10
65038;DHT22;51605;47.040;15.294;2023-07-31T02:13:04;24.00;53.10
65038;DHT22;51605;47.040;15.294;2023-07-31T02:15:30;24.00;53.10
65038;DHT22;51605;47.040;15.294;2023-07-31T02:17:56;24.00;53.00
65038;DHT22;51605;47.040;15.294;2023-07-31T02:20:22;24.00;53.00
65038;DHT22;51605;47.040;15.294;2023-07-31T02:22:47;24.00;53.10
65038;DHT22;51605;47.040;15.294;2023-07-31T02:25:13;24.00;53.00
65038;DHT22;51605;47.040;15.294;2023-07-31T02:27:39;24.00;53.10
65038;DHT22;51605;47.040;15.294;2023-07-31T02:30:05;24.00;53.10
65038;DHT22;51605;47.040;15.294;2023-07-31T02:32:31;24.00;53.00
65038;DHT22;51605;47.040;15.294;2023-07-31T02:34:56;24.00;53.00
65038;DHT22;51605;47.040;15.294;2023-07-31T02:37:22;24.00;53.00
65038;DHT22;51605;47.040;15.294;2023-07-31T02:39:48;24.00;53.10
65038;DHT22;51605;47.040;15.294;2023-07-31T02:42:14;24.00;53.00
65038;DHT22;51605;47.040;15.294;2023-07-31T02:44:40;24.00;53.10
65038;DHT22;51605;47.040;15.294;2023-07-31T02:47:05;24.00;53.10
65038;DHT22;51605;47.040;15.294;2023-07-31T02:49:31;24.00;53.10
65038;DHT22;51605;47.040;15.294;2023-07-31T02:51:57;24.00;53.00
65038;DHT22;51605;47.040;15.294;2023-07-31T02:54:23;24.00;53.00
65038;DHT22;51605;47.040;15.294;2023-07-31T02:56:48;24.00;53.10
65038;DHT22;51605;47.040;15.294;2023-07-31T02:59:15;24.00;53.10
65038;DHT22;51605;47.040;15.294;2023-07-31T03:01:40;24.00;53.10
65038;DHT22;51605;47.040;15.294;2023-07-31T03:04:07;24.00;53.00
65038;DHT22;51605;47.040;15.294;2023-07-31T03:06:32;24.00;53.10
65038;DHT22;51605;47.040;15.294;2023-07-31T03:08:58;24.00;53.10
65038;DHT22;51605;47.040;15.294;2023-07-31T03:11:23;24.00;53.10
65038;DHT22;51605;47.040;15.294;2023-07-31T03:13:49;24.00;53.00
65038;DHT22;51605;47.040;15.294;2023-07-31T03:16:15;24.00;53.10
65038;DHT22;51605;47.040;15.294;2023-07-31T03:18:40;24.00;53.00
65038;DHT22;51605;47.040;15.294;2023-07-31T03:21:06;24.00;53.00
65038;DHT22;51605;47.040;15.294;2023-07-31T03:23:32;24.00;53.10
65038;DHT22;51605;47.040;15.294;2023-07-31T03:25:58;24.00;53.10
65038;DHT22;51605;47.040;15.294;2023-07-31T03:28:24;24.00;53.10
65038;DHT22;51605;47.040;15.294;2023-07-31T03:30:50;24.00;53.10
65038;DHT22;51605;47.040;15.294;2023-07-31T03:33:16;24.00;53.10
65038;DHT22;51605;47.040;15.294;2023-07-31T03:35:41;24.00;53.10
65038;DHT22;51605;47.040;15.294;2023-07-31T03:38:07;24.00;53.10
65038;DHT22;51605;47.040;15.294;2023-07-31T03:40:33;24.00;53.10
65038;DHT22;51605;47.040;15.294;2023-07-31T03:42:58;24.00;53.10
65038;DHT22;51605;47.040;15.294;2023-07-31T03:45:24;24.00;53.00
65038;DHT22;51605;47.040;15.294;2023-07-31T03:47:49;24.00;53.00
65038;DHT22;51605;47.040;15.294;2023-07-31T03:50:15;24.00;53.00
65038;DHT22;51605;47.040;15.294;2023-07-31T03:52:41;24.00;53.00
65038;DHT22;51605;47.040;15.294;2023-07-31T03:55:07;24.00;53.00
65038;DHT22;51605;47.040;15.294;2023-07-31T03:57:33;24.00;53.00
65038;DHT22;51605;47.040;15.294;2023-07-31T03:59:59;24.00;53.00
65038;DHT22;51605;47.040;15.294;2023-07-31T04:02:24;24.00;53.10
65038;DHT22;51605;47.040;15.294;2023-07-31T04:04:50;24.00;53.00
65038;DHT22;51605;47.040;15.294;2023-07-31T04:07:15;24.00;53.00
65038;DHT22;51605;47.040;15.294;2023-07-31T04:09:41;24.00;53.00
65038;DHT22;51605;47.040;15.294;2023-07-31T04:12:07;24.00;53.00
65038;DHT22;51605;47.040;15.294;2023-07-31T04:14:32;24.00;53.00
65038;DHT22;51605;47.040;15.294;2023-07-31T04:16:58;24.00;53.00
65038;DHT22;51605;47.040;15.294;2023-07-31T04:19:24;24.00;53.00
65038;DHT22;51605;47.040;15.294;2023-07-31T04:21:50;24.00;53.00
65038;DHT22;51605;47.040;15.294;2023-07-31T04:24:15;24.00;53.00
65038;DHT22;51605;47.040;15.294;2023-07-31T04:26:41;24.00;53.00
65038;DHT22;51605;47.040;15.294;2023-07-31T04:29:06;24.00;53.10
65038;DHT22;51605;47.040;15.294;2023-07-31T04:31:33;24.00;53.10
65038;DHT22;51605;47.040;15.294;2023-07-31T04:33:59;24.00;53.00
65038;DHT22;51605;47.040;15.294;2023-07-31T04:36:24;24.00;53.00
65038;DHT22;51605;47.040;15.294;2023-07-31T04:38:50;24.00;53.00
65038;DHT22;51605;47.040;15.294;2023-07-31T04:41:16;24.00;53.00
65038;DHT22;51605;47.040;15.294;2023-07-31T04:43:41;24.00;53.00
65038;DHT22;51605;47.040;15.294;2023-07-31T04:46:07;24.00;53.00
65038;DHT22;51605;47.040;15.294;2023-07-31T04:48:32;24.00;53.00
65038;DHT22;51605;47.040;15.294;2023-07-31T04:50:58;24.00;53.00
65038;DHT22;51605;47.040;15.294;2023-07-31T04:53:24;24.00;53.00
65038;DHT22;51605;47.040;15.294;2023-07-31T04:55:49;24.00;53.00
65038;DHT22;51605;47.040;15.294;2023-07-31T04:58:15;24.00;53.00
65038;DHT22;51605;47.040;15.294;2023-07-31T05:00:40;24.00;53.00
65038;DHT22;51605;47.040;15.294;2023-07-31T05:03:06;24.00;53.10
65038;DHT22;51605;47.040;15.294;2023-07-31T05:05:32;24.00;53.00
65038;DHT22;51605;47.040;15.294;2023-07-31T05:07:58;24.00;53.00
65038;DHT22;51605;47.040;15.294;2023-07-31T05:10:23;24.00;53.00
65038;DHT22;51605;47.040;15.294;2023-07-31T05:12:49;24.00;53.00
65038;DHT22;51605;47.040;15.294;2023-07-31T05:15:15;24.00;53.00
65038;DHT22;51605;47.040;15.294;2023-07-31T05:17:40;24.00;53.00
65038;DHT22;51605;47.040;15.294;2023-07-31T05:20:06;24.00;52.90
65038;DHT22;51605;47.040;15.294;2023-07-31T05:22:32;24.00;53.00
65038;DHT22;51605;47.040;15.294;2023-07-31T05:24:58;24.00;53.00
65038;DHT22;51605;47.040;15.294;2023-07-31T05:27:23;24.00;53.00
65038;DHT22;51605;47.040;15.294;2023-07-31T05:29:49;24.00;53.00
65038;DHT22;51605;47.040;15.294;2023-07-31T05:32:15;24.00;52.90
65038;DHT22;51605;47.040;15.294;2023-07-31T05:34:40;24.00;53.00
65038;DHT22;51605;47.040;15.294;2023-07-31T05:37:06;24.00;53.00
65038;DHT22;51605;47.040;15.294;2023-07-31T05:39:31;24.00;53.00
65038;DHT22;51605;47.040;15.294;2023-07-31T05:41:57;24.00;53.00
65038;DHT22;51605;47.040;15.294;2023-07-31T05:44:23;24.00;53.00
65038;DHT22;51605;47.040;15.294;2023-07-31T05:46:48;24.00;53.00
65038;DHT22;51605;47.040;15.294;2023-07-31T05:49:14;24.00;53.00
65038;DHT22;51605;47.040;15.294;2023-07-31T05:51:39;24.00;54.00
65038;DHT22;51605;47.040;15.294;2023-07-31T05:54:05;24.00;53.10
65038;DHT22;51605;47.040;15.294;2023-07-31T05:56:31;24.00;53.00
65038;DHT22;51605;47.040;15.294;2023-07-31T05:58:57;24.00;53.00
65038;DHT22;51605;47.040;15.294;2023-07-31T06:01:22;24.00;53.00
65038;DHT22;51605;47.040;15.294;2023-07-31T06:03:48;24.00;53.00
65038;DHT22;51605;47.040;15.294;2023-07-31T06:06:13;24.00;53.00
65038;DHT22;51605;47.040;15.294;2023-07-31T06:08:39;24.00;52.90
65038;DHT22;51605;47.040;15.294;2023-07-31T06:11:05;24.00;52.90
65038;DHT22;51605;47.040;15.294;2023-07-31T06:13:31;24.00;53.00
65038;DHT22;51605;47.040;15.294;2023-07-31T06:15:57;24.00;53.00
65038;DHT22;51605;47.040;15.294;2023-07-31T06:18:22;24.00;53.00
65038;DHT22;51605;47.040;15.294;2023-07-31T06:20:48;24.00;53.00
65038;DHT22;51605;47.040;15.294;2023-07-31T06:23:19;24.00;53.00
65038;DHT22;51605;47.040;15.294;2023-07-31T06:25:44;24.00;53.00
65038;DHT22;51605;47.040;15.294;2023-07-31T06:28:10;24.00;53.00
65038;DHT22;51605;47.040;15.294;2023-07-31T06:30:36;24.00;53.00
65038;DHT22;51605;47.040;15.294;2023-07-31T06:33:01;24.00;53.00
65038;DHT22;51605;47.040;15.294;2023-07-31T06:35:27;24.00;52.90
65038;DHT22;51605;47.040;15.294;2023-07-31T06:37:52;24.00;53.00
65038;DHT22;51605;47.040;15.294;2023-07-31T06:40:18;24.00;53.00
65038;DHT22;51605;47.040;15.294;2023-07-31T06:42:44;24.00;53.00
65038;DHT22;51605;47.040;15.294;2023-07-31T06:45:10;24.00;53.00
65038;DHT22;51605;47.040;15.294;2023-07-31T06:47:36;24.00;53.00
65038;DHT22;51605;47.040;15.294;2023-07-31T06:50:02;24.00;53.00
65038;DHT22;51605;47.040;15.294;2023-07-31T06:52:27;24.00;53.00
65038;DHT22;51605;47.040;15.294;2023-07-31T06:55:04;24.00;53.00
65038;DHT22;51605;47.040;15.294;2023-07-31T06:57:41;24.00;53.20
65038;DHT22;51605;47.040;15.294;2023-07-31T07:00:07;24.00;52.90
65038;DHT22;51605;47.040;15.294;2023-07-31T07:02:33;24.00;53.00
65038;DHT22;51605;47.040;15.294;2023-07-31T07:04:59;24.00;53.00
65038;DHT22;51605;47.040;15.294;2023-07-31T07:07:25;24.00;53.10
65038;DHT22;51605;47.040;15.294;2023-07-31T07:09:50;24.10;53.20
65038;DHT22;51605;47.040;15.294;2023-07-31T07:12:16;24.00;53.00
65038;DHT22;51605;47.040;15.294;2023-07-31T07:14:42;24.00;53.00
65038;DHT22;51605;47.040;15.294;2023-07-31T07:17:07;24.00;53.00
65038;DHT22;51605;47.040;15.294;2023-07-31T07:19:33;24.00;53.00
65038;DHT22;51605;47.040;15.294;2023-07-31T07:21:58;24.00;53.00
65038;DHT22;51605;47.040;15.294;2023-07-31T07:24:27;24.00;53.10
65038;DHT22;51605;47.040;15.294;2023-07-31T07:26:53;24.00;53.10
65038;DHT22;51605;47.040;15.294;2023-07-31T07:29:18;24.00;53.10
65038;DHT22;51605;47.040;15.294;2023-07-31T07:31:44;24.00;53.10
65038;DHT22;51605;47.040;15.294;2023-07-31T07:34:09;24.00;53.10
65038;DHT22;51605;47.040;15.294;2023-07-31T07:36:35;24.10;53.10
65038;DHT22;51605;47.040;15.294;2023-07-31T07:39:00;24.10;53.10
65038;DHT22;51605;47.040;15.294;2023-07-31T07:41:26;24.00;53.10
65038;DHT22;51605;47.040;15.294;2023-07-31T07:43:52;24.00;53.10
65038;DHT22;51605;47.040;15.294;2023-07-31T07:46:17;24.00;53.10
65038;DHT22;51605;47.040;15.294;2023-07-31T07:48:43;24.00;54.00
65038;DHT22;51605;47.040;15.294;2023-07-31T07:51:08;24.00;53.00
65038;DHT22;51605;47.040;15.294;2023-07-31T07:53:34;24.00;53.00
65038;DHT22;51605;47.040;15.294;2023-07-31T07:55:59;24.10;53.10
65038;DHT22;51605;47.040;15.294;2023-07-31T07:58:25;24.00;53.00
65038;DHT22;51605;47.040;15.294;2023-07-31T08:00:51;24.00;53.00
65038;DHT22;51605;47.040;15.294;2023-07-31T08:03:17;24.10;53.00
65038;DHT22;51605;47.040;15.294;2023-07-31T08:05:44;24.00;53.00
65038;DHT22;51605;47.040;15.294;2023-07-31T08:08:17;24.00;53.00
65038;DHT22;51605;47.040;15.294;2023-07-31T08:10:43;24.00;53.00
65038;DHT22;51605;47.040;15.294;2023-07-31T08:13:11;24.00;53.00
65038;DHT22;51605;47.040;15.294;2023-07-31T08:15:37;24.10;53.00
65038;DHT22;51605;47.040;15.294;2023-07-31T08:18:02;24.00;52.90
65038;DHT22;51605;47.040;15.294;2023-07-31T08:20:28;24.10;53.00
65038;DHT22;51605;47.040;15.294;2023-07-31T08:22:53;24.10;53.00
65038;DHT22;51605;47.040;15.294;2023-07-31T08:25:19;24.10;53.00
65038;DHT22;51605;47.040;15.294;2023-07-31T08:27:45;24.10;53.00
65038;DHT22;51605;47.040;15.294;2023-07-31T08:30:11;24.10;53.00
65038;DHT22;51605;47.040;15.294;2023-07-31T08:32:37;24.00;53.00
65038;DHT22;51605;47.040;15.294;2023-07-31T08:35:03;24.00;53.00
65038;DHT22;51605;47.040;15.294;2023-07-31T08:37:29;24.00;53.00
65038;DHT22;51605;47.040;15.294;2023-07-31T08:39:55;24.00;53.00
65038;DHT22;51605;47.040;15.294;2023-07-31T08:42:20;24.00;53.00
65038;DHT22;51605;47.040;15.294;2023-07-31T08:44:46;24.10;53.00
65038;DHT22;51605;47.040;15.294;2023-07-31T08:47:13;24.00;53.00
65038;DHT22;51605;47.040;15.294;2023-07-31T08:49:39;24.10;53.00
65038;DHT22;51605;47.040;15.294;2023-07-31T08:52:06;24.00;53.00
65038;DHT22;51605;47.040;15.294;2023-07-31T08:54:32;24.00;52.90
65038;DHT22;51605;47.040;15.294;2023-07-31T08:56:58;24.00;53.00
65038;DHT22;51605;47.040;15.294;2023-07-31T08:59:28;24.00;53.00
65038;DHT22;51605;47.040;15.294;2023-07-31T09:01:55;24.00;53.00
65038;DHT22;51605;47.040;15.294;2023-07-31T09:04:23;24.10;53.00
65038;DHT22;51605;47.040;15.294;2023-07-31T09:06:49;24.00;53.00
65038;DHT22;51605;47.040;15.294;2023-07-31T09:09:15;24.00;53.00
65038;DHT22;51605;47.040;15.294;2023-07-31T09:11:41;24.00;53.00
65038;DHT22;51605;47.040;15.294;2023-07-31T09:14:08;24.00;53.00
65038;DHT22;51605;47.040;15.294;2023-07-31T09:16:34;24.00;53.00
65038;DHT22;51605;47.040;15.294;2023-07-31T09:19:00;24.00;53.00
65038;DHT22;51605;47.040;15.294;2023-07-31T09:21:28;24.00;53.00
65038;DHT22;51605;47.040;15.294;2023-07-31T09:23:54;24.00;53.00
65038;DHT22;51605;47.040;15.294;2023-07-31T09:26:35;24.00;53.00
65038;DHT22;51605;47.040;15.294;2023-07-31T09:29:04;24.00;53.00
65038;DHT22;51605;47.040;15.294;2023-07-31T09:31:42;24.00;53.00
65038;DHT22;51605;47.040;15.294;2023-07-31T09:34:08;24.00;53.00
65038;DHT22;51605;47.040;15.294;2023-07-31T09:36:43;24.00;53.10
65038;DHT22;51605;47.040;15.294;2023-07-31T09:39:10;24.00;53.10
65038;DHT22;51605;47.040;15.294;2023-07-31T09:41:40;24.00;53.00
65038;DHT22;51605;47.040;15.294;2023-07-31T09:44:07;24.00;53.20
65038;DHT22;51605;47.040;15.294;2023-07-31T09:46:35;24.00;53.30
65038;DHT22;51605;47.040;15.294;2023-07-31T09:49:11;24.00;53.30
65038;DHT22;51605;47.040;15.294;2023-07-31T09:51:38;24.00;53.20
65038;DHT22;51605;47.040;15.294;2023-07-31T09:54:15;24.00;53.20
65038;DHT22;51605;47.040;15.294;2023-07-31T09:56:46;24.00;53.30
65038;DHT22;51605;47.040;15.294;2023-07-31T09:59:14;24.00;53.20
65038;DHT22;51605;47.040;15.294;2023-07-31T10:01:41;24.00;53.20
65038;DHT22;51605;47.040;15.294;2023-07-31T10:04:08;24.00;53.50
65038;DHT22;51605;47.040;15.294;2023-07-31T10:06:36;24.00;53.70
65038;DHT22;51605;47.040;15.294;2023-07-31T10:09:03;24.00;53.70
65038;DHT22;51605;47.040;15.294;2023-07-31T10:11:42;24.00;53.70
65038;DHT22;51605;47.040;15.294;2023-07-31T10:14:10;24.10;53.50
65038;DHT22;51605;47.040;15.294;2023-07-31T10:16:38;24.10;53.60
65038;DHT22;51605;47.040;15.294;2023-07-31T10:19:05;24.00;53.50
65038;DHT22;51605;47.040;15.294;2023-07-31T10:21:32;24.00;53.50
65038;DHT22;51605;47.040;15.294;2023-07-31T10:24:03;24.00;53.50
65038;DHT22;51605;47.040;15.294;2023-07-31T10:26:31;24.00;53.60
65038;DHT22;51605;47.040;15.294;2023-07-31T10:28:58;24.00;53.50
65038;DHT22;51605;47.040;15.294;2023-07-31T10:31:24;24.00;53.60
65038;DHT22;51605;47.040;15.294;2023-07-31T10:33:51;24.00;53.50
65038;DHT22;51605;47.040;15.294;2023-07-31T10:36:19;24.00;53.50
65038;DHT22;51605;47.040;15.294;2023-07-31T10:38:46;24.00;53.50
65038;DHT22;51605;47.040;15.294;2023-07-31T10:41:14;24.00;53.60
65038;DHT22;51605;47.040;15.294;2023-07-31T10:43:40;24.10;53.50
65038;DHT22;51605;47.040;15.294;2023-07-31T10:46:12;24.00;53.50
65038;DHT22;51605;47.040;15.294;2023-07-31T10:48:40;24.00;53.50
65038;DHT22;51605;47.040;15.294;2023-07-31T10:51:12;24.00;53.40
65038;DHT22;51605;47.040;15.294;2023-07-31T10:53:39;24.00;53.40
65038;DHT22;51605;47.040;15.294;2023-07-31T10:56:09;24.10;53.40
65038;DHT22;51605;47.040;15.294;2023-07-31T10:58:37;24.00;53.40
65038;DHT22;51605;47.040;15.294;2023-07-31T11:01:04;24.00;53.40
65038;DHT22;51605;47.040;15.294;2023-07-31T11:03:50;24.00;53.40
65038;DHT22;51605;47.040;15.294;2023-07-31T11:06:19;24.00;53.50
65038;DHT22;51605;47.040;15.294;2023-07-31T11:08:46;24.10;53.50
65038;DHT22;51605;47.040;15.294;2023-07-31T11:11:14;24.00;53.40
65038;DHT22;51605;47.040;15.294;2023-07-31T11:13:42;24.00;53.40
65038;DHT22;51605;47.040;15.294;2023-07-31T11:16:09;24.00;53.50
65038;DHT22;51605;47.040;15.294;2023-07-31T11:18:35;24.10;53.60
65038;DHT22;51605;47.040;15.294;2023-07-31T11:21:01;24.00;53.30
65038;DHT22;51605;47.040;15.294;2023-07-31T11:23:27;24.00;53.40
65038;DHT22;51605;47.040;15.294;2023-07-31T11:25:53;24.10;53.40
65038;DHT22;51605;47.040;15.294;2023-07-31T11:28:24;24.00;53.40
65038;DHT22;51605;47.040;15.294;2023-07-31T11:30:50;24.10;53.40
65038;DHT22;51605;47.040;15.294;2023-07-31T11:33:15;24.00;53.40
65038;DHT22;51605;47.040;15.294;2023-07-31T11:35:45;24.00;53.40
65038;DHT22;51605;47.040;15.294;2023-07-31T11:38:12;24.00;53.40
65038;DHT22;51605;47.040;15.294;2023-07-31T11:40:46;24.10;53.40
65038;DHT22;51605;47.040;15.294;2023-07-31T11:43:11;24.10;53.40
65038;DHT22;51605;47.040;15.294;2023-07-31T11:45:41;24.10;53.80
65038;DHT22;51605;47.040;15.294;2023-07-31T11:48:07;24.10;54.10
65038;DHT22;51605;47.040;15.294;2023-07-31T11:50:33;24.00;53.90
65038;DHT22;51605;47.040;15.294;2023-07-31T11:53:04;24.10;54.20
65038;DHT22;51605;47.040;15.294;2023-07-31T11:55:32;24.20;54.40
65038;DHT22;51605;47.040;15.294;2023-07-31T11:57:59;24.20;54.50
65038;DHT22;51605;47.040;15.294;2023-07-31T12:00:26;24.30;54.70
65038;DHT22;51605;47.040;15.294;2023-07-31T12:02:53;24.40;54.80
65038;DHT22;51605;47.040;15.294;2023-07-31T12:05:19;24.50;54.80
65038;DHT22;51605;47.040;15.294;2023-07-31T12:07:55;24.60;54.80
65038;DHT22;51605;47.040;15.294;2023-07-31T12:15:37;24.80;54.70
65038;DHT22;51605;47.040;15.294;2023-07-31T12:18:22;25.00;54.80
65038;DHT22;51605;47.040;15.294;2023-07-31T12:20:53;25.00;54.60
65038;DHT22;51605;47.040;15.294;2023-07-31T12:23:25;25.10;54.60
65038;DHT22;51605;47.040;15.294;2023-07-31T12:28:26;25.10;54.40
65038;DHT22;51605;47.040;15.294;2023-07-31T12:30:51;25.20;54.40
65038;DHT22;51605;47.040;15.294;2023-07-31T12:33:19;25.20;54.30
65038;DHT22;51605;47.040;15.294;2023-07-31T12:35:47;25.30;54.30
65038;DHT22;51605;47.040;15.294;2023-07-31T12:38:13;25.30;54.30
65038;DHT22;51605;47.040;15.294;2023-07-31T12:40:40;25.30;54.20
65038;DHT22;51605;47.040;15.294;2023-07-31T12:43:07;25.30;54.10
65038;DHT22;51605;47.040;15.294;2023-07-31T12:45:33;25.30;54.10
65038;DHT22;51605;47.040;15.294;2023-07-31T12:47:59;25.30;54.10
65038;DHT22;51605;47.040;15.294;2023-07-31T12:50:26;25.30;54.10
65038;DHT22;51605;47.040;15.294;2023-07-31T12:52:53;25.30;54.10
65038;DHT22;51605;47.040;15.294;2023-07-31T12:55:19;25.30;54.20
65038;DHT22;51605;47.040;15.294;2023-07-31T12:57:44;25.20;54.20
65038;DHT22;51605;47.040;15.294;2023-07-31T13:00:11;25.10;54.30
65038;DHT22;51605;47.040;15.294;2023-07-31T13:02:36;25.00;54.30
65038;DHT22;51605;47.040;15.294;2023-07-31T13:05:02;25.00;54.40
65038;DHT22;51605;47.040;15.294;2023-07-31T13:07:28;24.90;54.40
65038;DHT22;51605;47.040;15.294;2023-07-31T13:09:54;24.80;54.50
65038;DHT22;51605;47.040;15.294;2023-07-31T13:12:22;24.80;54.60
65038;DHT22;51605;47.040;15.294;2023-07-31T13:14:47;24.80;54.70
65038;DHT22;51605;47.040;15.294;2023-07-31T13:17:13;24.70;54.70
65038;DHT22;51605;47.040;15.294;2023-07-31T13:19:39;24.70;54.80
65038;DHT22;51605;47.040;15.294;2023-07-31T13:22:04;24.70;54.80
65038;DHT22;51605;47.040;15.294;2023-07-31T13:24:30;24.60;54.80
65038;DHT22;51605;47.040;15.294;2023-07-31T13:26:56;24.60;55.70
65038;DHT22;51605;47.040;15.294;2023-07-31T13:29:22;24.60;54.80
65038;DHT22;51605;47.040;15.294;2023-07-31T13:31:49;24.60;54.80
65038;DHT22;51605;47.040;15.294;2023-07-31T13:34:14;24.60;54.80
65038;DHT22;51605;47.040;15.294;2023-07-31T13:36:40;24.60;54.70
65038;DHT22;51605;47.040;15.294;2023-07-31T13:39:07;24.60;55.80
65038;DHT22;51605;47.040;15.294;2023-07-31T13:41:32;24.50;54.80
65038;DHT22;51605;47.040;15.294;2023-07-31T13:43:58;24.50;54.90
65038;DHT22;51605;47.040;15.294;2023-07-31T13:46:24;24.50;54.90
65038;DHT22;51605;47.040;15.294;2023-07-31T13:48:51;24.50;54.90
65038;DHT22;51605;47.040;15.294;2023-07-31T13:51:17;24.40;54.90
65038;DHT22;51605;47.040;15.294;2023-07-31T13:53:42;24.40;54.90
65038;DHT22;51605;47.040;15.294;2023-07-31T13:56:08;24.40;54.90
65038;DHT22;51605;47.040;15.294;2023-07-31T13:58:33;24.40;55.00
65038;DHT22;51605;47.040;15.294;2023-07-31T14:00:59;24.40;55.00
65038;DHT22;51605;47.040;15.294;2023-07-31T14:03:25;24.40;55.00
65038;DHT22;51605;47.040;15.294;2023-07-31T14:05:52;24.40;55.00
65038;DHT22;51605;47.040;15.294;2023-07-31T14:08:19;24.40;55.00
65038;DHT22;51605;47.040;15.294;2023-07-31T14:10:45;24.30;55.00
65038;DHT22;51605;47.040;15.294;2023-07-31T14:13:11;24.30;54.90
65038;DHT22;51605;47.040;15.294;2023-07-31T14:15:36;24.30;55.00
65038;DHT22;51605;47.040;15.294;2023-07-31T14:18:02;24.30;55.00
65038;DHT22;51605;47.040;15.294;2023-07-31T14:20:28;24.30;55.00
65038;DHT22;51605;47.040;15.294;2023-07-31T14:22:55;24.30;55.00
65038;DHT22;51605;47.040;15.294;2023-07-31T14:25:21;24.30;55.00
65038;DHT22;51605;47.040;15.294;2023-07-31T14:27:46;24.40;54.90
65038;DHT22;51605;47.040;15.294;2023-07-31T14:30:12;24.30;54.90
65038;DHT22;51605;47.040;15.294;2023-07-31T14:32:38;24.30;54.90
65038;DHT22;51605;47.040;15.294;2023-07-31T14:35:04;24.30;54.90
65038;DHT22;51605;47.040;15.294;2023-07-31T14:37:43;24.30;54.90
65038;DHT22;51605;47.040;15.294;2023-07-31T14:40:11;24.30;55.00
65038;DHT22;51605;47.040;15.294;2023-07-31T14:42:37;24.30;54.90
65038;DHT22;51605;47.040;15.294;2023-07-31T14:45:04;24.30;55.00
65038;DHT22;51605;47.040;15.294;2023-07-31T14:47:30;24.30;55.00
65038;DHT22;51605;47.040;15.294;2023-07-31T14:49:59;24.20;54.90
65038;DHT22;51605;47.040;15.294;2023-07-31T14:52:25;24.20;54.90
65038;DHT22;51605;47.040;15.294;2023-07-31T14:54:51;24.20;54.90
65038;DHT22;51605;47.040;15.294;2023-07-31T14:57:16;24.20;54.90
65038;DHT22;51605;47.040;15.294;2023-07-31T14:59:42;24.20;54.90
65038;DHT22;51605;47.040;15.294;2023-07-31T15:02:12;24.20;54.90
65038;DHT22;51605;47.040;15.294;2023-07-31T15:04:38;24.20;54.90
65038;DHT22;51605;47.040;15.294;2023-07-31T15:07:04;24.30;54.90
65038;DHT22;51605;47.040;15.294;2023-07-31T15:09:29;24.30;54.90
65038;DHT22;51605;47.040;15.294;2023-07-31T15:11:56;24.30;54.80
65038;DHT22;51605;47.040;15.294;2023-07-31T15:14:22;24.20;54.80
65038;DHT22;51605;47.040;15.294;2023-07-31T15:16:47;24.20;54.80
65038;DHT22;51605;47.040;15.294;2023-07-31T15:19:14;24.20;54.80
65038;DHT22;51605;47.040;15.294;2023-07-31T15:21:39;24.20;54.80
65038;DHT22;51605;47.040;15.294;2023-07-31T15:24:05;24.30;54.80
65038;DHT22;51605;47.040;15.294;2023-07-31T15:26:30;24.20;54.80